Hooppole, Illinois
Current Conditions -  °F | °C
As of 9:55 AM on Friday 31 Oct 2014 (Local Time) from KSQI Reporting Station
Few Clouds Few Clouds  
Wind Chill: 30°   Ceiling: Unl
Heat Index: 39°   Visibility: 10mi
Dew Point: 23°   Wind: 20mph
Humidity: 52%   Direction: 360°N
Pressure: 30.26"   Gusts: 28mph
Location:  41.52°N, 89.91°W
Report Text: KSQI 311455Z AUTO 36017G24KT 10SM FEW036 04/M05 A3026 RMK AO1 52017
Loading
Personal Weather Stations






























Interactive Weather Map
Tropical Storm Tracking
New forecast layout! Learn more

10-Day Weather Forecast

Advertisements
Track Severe Weather on mobile